Time;durP1;ratioP1;P1;durP2;ratioP2;P2;SDS_P1;SDS_P2;PMS_P1;PMS_P2;Temp;Humidity;BMP_temperature;BMP_pressure;BME280_temperature;BME280_humidity;BME280_pressure;Samples;Min_cycle;Max_cycle;Signal;HPM_P1;HPM_P2
2023/05/13 00:01:04;;;;;;;21.80;16.10;;;12.50;99.90;;;;;;5011470;28;20215;-67
2023/05/13 00:03:30;;;;;;;24.67;17.30;;;12.50;99.90;;;;;;5012008;28;20230;-66
2023/05/13 00:05:55;;;;;;;24.70;17.93;;;12.40;99.90;;;;;;5011602;28;20558;-67
2023/05/13 00:08:21;;;;;;;23.70;19.47;;;12.40;99.90;;;;;;5011406;28;20584;-67
2023/05/13 00:10:46;;;;;;;22.07;19.10;;;12.40;99.90;;;;;;5011208;28;20219;-67
2023/05/13 00:13:12;;;;;;;24.63;18.77;;;12.40;99.90;;;;;;5011965;28;20172;-67
2023/05/13 00:15:39;;;;;;;27.07;18.93;;;12.30;99.90;;;;;;5011377;28;20172;-67
2023/05/13 00:18:05;;;;;;;22.83;18.67;;;12.30;99.90;;;;;;5011769;28;20175;-67
2023/05/13 00:20:30;;;;;;;22.43;18.43;;;12.40;99.90;;;;;;5011230;28;20198;-66
2023/05/13 00:22:56;;;;;;;24.20;20.23;;;12.30;99.90;;;;;;5011338;28;20608;-67
2023/05/13 00:25:21;;;;;;;27.00;20.27;;;12.30;99.90;;;;;;5011800;28;20183;-65
2023/05/13 00:27:47;;;;;;;22.23;19.87;;;12.30;99.90;;;;;;5011247;28;20256;-65
2023/05/13 00:30:13;;;;;;;26.73;19.67;;;12.30;99.90;;;;;;5011246;28;20212;-66
2023/05/13 00:32:38;;;;;;;23.60;20.50;;;12.30;99.90;;;;;;5011437;28;20175;-65
2023/05/13 00:35:05;;;;;;;24.67;19.93;;;12.20;99.90;;;;;;5011680;28;20596;-66
2023/05/13 00:37:30;;;;;;;26.50;20.00;;;12.20;99.90;;;;;;5011600;28;20180;-65
2023/05/13 00:39:56;;;;;;;26.03;19.17;;;12.20;99.90;;;;;;5010994;28;20677;-66
2023/05/13 00:42:21;;;;;;;21.90;19.33;;;12.20;99.90;;;;;;5011422;28;20182;-65
2023/05/13 00:44:47;;;;;;;26.53;19.40;;;12.10;99.90;;;;;;5011103;28;20169;-66
2023/05/13 00:47:12;;;;;;;28.27;20.63;;;12.10;99.90;;;;;;5011414;28;20176;-65
2023/05/13 00:49:38;;;;;;;25.70;20.60;;;12.10;99.90;;;;;;5011056;28;20188;-65
2023/05/13 00:52:04;;;;;;;25.67;20.17;;;12.00;99.90;;;;;;5011048;28;20208;-65
2023/05/13 00:54:30;;;;;;;25.73;20.67;;;12.00;99.90;;;;;;5011370;28;20274;-66
2023/05/13 00:56:57;;;;;;;25.07;22.03;;;12.00;99.90;;;;;;5011271;28;20231;-65
2023/05/13 00:59:25;;;;;;;26.50;21.73;;;12.10;99.90;;;;;;5011365;28;20188;-65
2023/05/13 01:02:06;;;;;;;29.40;21.67;;;12.10;99.90;;;;;;5010802;28;20303;-65
2023/05/13 01:05:09;;;;;;;30.37;23.17;;;12.10;99.90;;;;;;5010907;28;20527;-65
2023/05/13 01:07:56;;;;;;;33.80;23.63;;;12.10;99.90;;;;;;5011273;28;20669;-65
2023/05/13 01:10:46;;;;;;;28.97;23.37;;;12.20;99.90;;;;;;5010618;28;20212;-67
2023/05/13 01:13:16;;;;;;;37.23;24.00;;;12.10;99.90;;;;;;5011130;28;20200;-65
2023/05/13 01:15:51;;;;;;;29.97;24.73;;;12.10;99.90;;;;;;5011038;28;20187;-65
2023/05/13 01:18:27;;;;;;;31.80;25.53;;;12.10;99.90;;;;;;5010885;28;20164;-66
2023/05/13 01:20:55;;;;;;;30.60;25.37;;;12.10;99.90;;;;;;5013547;28;20608;-65
2023/05/13 01:23:20;;;;;;;34.43;24.63;;;12.10;99.90;;;;;;5014822;28;20176;-67
2023/05/13 01:25:46;;;;;;;31.97;24.67;;;12.10;99.90;;;;;;5015032;28;20238;-67
2023/05/13 01:28:12;;;;;;;33.03;24.43;;;12.10;99.90;;;;;;5014693;28;20178;-67
2023/05/13 01:30:38;;;;;;;31.53;25.10;;;12.10;99.90;;;;;;5013968;28;20204;-67
2023/05/13 01:33:04;;;;;;;33.03;23.90;;;12.00;99.90;;;;;;5014441;28;20226;-67
2023/05/13 01:35:30;;;;;;;33.07;24.40;;;12.00;99.90;;;;;;5014383;28;20261;-67
2023/05/13 01:37:56;;;;;;;32.20;24.13;;;12.00;99.90;;;;;;5014250;28;20262;-67
2023/05/13 01:40:22;;;;;;;33.00;24.13;;;12.00;99.90;;;;;;5014312;28;20768;-67
2023/05/13 01:42:48;;;;;;;34.93;25.53;;;12.00;99.90;;;;;;5014157;28;20187;-67
2023/05/13 01:45:14;;;;;;;33.43;25.17;;;11.90;99.90;;;;;;5014942;28;20186;-67
2023/05/13 01:47:40;;;;;;;31.53;22.87;;;12.00;99.90;;;;;;5014350;28;20230;-67
2023/05/13 01:50:06;;;;;;;29.17;24.90;;;11.90;99.90;;;;;;5013624;28;20196;-67
2023/05/13 01:52:32;;;;;;;35.60;24.57;;;11.90;99.90;;;;;;5014373;28;20176;-67
2023/05/13 01:54:57;;;;;;;34.67;24.70;;;11.80;99.90;;;;;;5014317;28;20187;-67
2023/05/13 01:57:23;;;;;;;34.17;24.37;;;11.80;99.90;;;;;;5014423;28;20689;-67
2023/05/13 01:59:48;;;;;;;29.73;24.20;;;11.80;99.90;;;;;;5013603;28;20192;-67
2023/05/13 02:04:42;;;;;;;27.63;23.63;;;11.70;99.90;;;;;;5050962;28;20218;-68
2023/05/13 02:07:07;;;;;;;29.37;24.00;;;11.70;99.90;;;;;;5053903;28;20237;-67
2023/05/13 02:09:33;;;;;;;33.17;23.10;;;11.70;99.90;;;;;;5053213;28;20214;-68
2023/05/13 02:11:59;;;;;;;30.77;24.07;;;11.60;99.90;;;;;;5053865;28;20696;-68
2023/05/13 02:14:25;;;;;;;31.43;24.93;;;11.60;99.90;;;;;;5053545;28;20205;-67
2023/05/13 02:16:50;;;;;;;31.00;24.27;;;11.60;99.90;;;;;;5053616;28;20174;-67
2023/05/13 02:19:16;;;;;;;31.37;25.27;;;11.50;99.90;;;;;;5053251;28;20655;-67
2023/05/13 02:21:42;;;;;;;30.50;24.07;;;11.50;99.90;;;;;;5053482;28;20198;-67
2023/05/13 02:24:08;;;;;;;32.70;25.33;;;11.50;99.90;;;;;;5053146;28;20183;-67
2023/05/13 02:26:34;;;;;;;32.73;24.57;;;11.50;99.90;;;;;;5053439;28;20250;-67
2023/05/13 02:29:00;;;;;;;39.40;23.57;;;11.50;99.90;;;;;;5051905;28;20202;-68
2023/05/13 02:31:25;;;;;;;35.00;23.83;;;11.40;99.90;;;;;;5052390;28;20230;-68
2023/05/13 02:33:51;;;;;;;33.47;24.73;;;11.40;99.90;;;;;;5052963;28;20209;-68
2023/05/13 02:36:17;;;;;;;31.90;24.20;;;11.40;99.90;;;;;;5053254;28;20259;-67
2023/05/13 02:38:42;;;;;;;31.73;24.73;;;11.40;99.90;;;;;;5052977;28;20171;-68
2023/05/13 02:41:08;;;;;;;32.47;24.77;;;11.30;99.90;;;;;;5053035;28;20217;-68
2023/05/13 02:43:33;;;;;;;31.20;23.77;;;11.30;99.90;;;;;;5052908;28;20183;-67
2023/05/13 02:45:59;;;;;;;35.20;25.23;;;11.30;99.90;;;;;;5052980;28;20245;-67
2023/05/13 02:48:25;;;;;;;32.83;23.77;;;11.30;99.90;;;;;;5051619;28;20648;-67
2023/05/13 02:50:50;;;;;;;28.87;24.17;;;11.40;99.90;;;;;;5052510;28;20221;-67
2023/05/13 02:53:16;;;;;;;35.00;25.20;;;11.40;99.90;;;;;;5052875;28;20651;-68
2023/05/13 02:55:41;;;;;;;33.67;26.33;;;11.40;99.90;;;;;;5052888;28;20181;-67
2023/05/13 02:58:08;;;;;;;30.33;24.23;;;11.40;99.90;;;;;;5052797;28;20231;-68
2023/05/13 03:00:34;;;;;;;33.00;25.17;;;11.40;99.90;;;;;;5052163;28;20175;-68
2023/05/13 03:02:59;;;;;;;34.60;25.93;;;11.40;99.90;;;;;;5052694;28;20189;-68
2023/05/13 03:05:25;;;;;;;35.60;25.63;;;11.50;99.90;;;;;;5052908;28;20178;-67
2023/05/13 03:07:50;;;;;;;35.43;25.87;;;11.50;99.90;;;;;;5052423;28;20550;-68
2023/05/13 03:10:16;;;;;;;34.53;26.77;;;11.50;99.90;;;;;;5052195;28;20194;-67
2023/05/13 03:12:42;;;;;;;32.47;25.60;;;11.50;99.90;;;;;;5052414;28;20254;-67
2023/05/13 03:15:08;;;;;;;34.83;25.60;;;11.50;99.90;;;;;;5052673;28;20209;-67
2023/05/13 03:17:34;;;;;;;35.20;26.77;;;11.40;99.90;;;;;;5052174;28;20194;-68
2023/05/13 03:20:00;;;;;;;35.90;26.40;;;11.40;99.90;;;;;;5052201;28;20170;-68
2023/05/13 03:22:25;;;;;;;35.87;26.07;;;11.40;99.90;;;;;;5052260;28;20194;-67
2023/05/13 03:24:51;;;;;;;33.00;25.73;;;11.50;99.90;;;;;;5052358;28;20636;-67
2023/05/13 03:27:17;;;;;;;35.90;26.43;;;11.40;99.90;;;;;;5052038;28;20179;-68
2023/05/13 03:29:43;;;;;;;30.13;24.73;;;11.50;99.90;;;;;;5052008;28;20171;-68
2023/05/13 03:32:08;;;;;;;34.33;26.50;;;11.50;99.90;;;;;;5051926;28;20206;-68
2023/05/13 03:34:35;;;;;;;34.57;25.93;;;11.50;99.90;;;;;;5052476;28;20681;-68
2023/05/13 03:37:01;;;;;;;34.13;25.20;;;11.50;99.90;;;;;;5051295;28;20179;-68
2023/05/13 03:39:26;;;;;;;34.77;24.40;;;11.50;99.90;;;;;;5051984;28;20546;-68
2023/05/13 03:41:52;;;;;;;33.80;26.03;;;11.50;99.90;;;;;;5051308;28;20202;-68
2023/05/13 03:44:17;;;;;;;40.30;27.10;;;11.50;99.90;;;;;;5049437;28;20182;-68
2023/05/13 03:46:43;;;;;;;36.97;27.70;;;11.50;99.90;;;;;;5051819;28;20193;-68
2023/05/13 03:49:09;;;;;;;34.17;26.27;;;11.50;99.90;;;;;;5051392;28;20262;-68
2023/05/13 03:51:34;;;;;;;37.80;26.23;;;11.50;99.90;;;;;;5051734;28;20309;-68
2023/05/13 03:54:01;;;;;;;34.37;26.03;;;11.60;99.90;;;;;;5051394;28;20174;-67
2023/05/13 03:56:26;;;;;;;38.30;27.57;;;11.60;99.90;;;;;;5052032;28;20257;-67
2023/05/13 03:58:52;;;;;;;32.93;26.40;;;11.60;99.90;;;;;;5051715;28;20263;-67
2023/05/13 04:01:18;;;;;;;30.67;25.17;;;11.70;99.90;;;;;;5050956;28;20632;-67
2023/05/13 04:03:45;;;;;;;36.50;25.03;;;11.70;99.90;;;;;;5051798;28;20182;-67
2023/05/13 04:06:12;;;;;;;35.03;26.23;;;11.60;99.90;;;;;;5051343;28;20174;-67
2023/05/13 04:08:38;;;;;;;31.83;23.90;;;11.70;99.90;;;;;;5051331;28;20544;-67
2023/05/13 04:11:03;;;;;;;33.60;25.50;;;11.70;99.90;;;;;;5051227;28;20206;-66
2023/05/13 04:13:29;;;;;;;35.17;25.33;;;11.70;99.90;;;;;;5051296;28;20202;-66
2023/05/13 04:15:55;;;;;;;29.83;23.77;;;11.70;99.90;;;;;;5051751;28;20166;-66
2023/05/13 04:18:20;;;;;;;31.57;24.57;;;11.80;99.90;;;;;;5051364;28;20199;-66
2023/05/13 04:20:46;;;;;;;32.00;23.00;;;11.80;99.90;;;;;;5050824;28;20840;-66
2023/05/13 04:23:11;;;;;;;30.23;22.80;;;11.90;99.90;;;;;;5051369;28;20170;-66
2023/05/13 04:25:37;;;;;;;29.03;23.30;;;11.90;99.90;;;;;;5051398;28;20178;-66
2023/05/13 04:28:03;;;;;;;30.30;23.17;;;11.90;99.90;;;;;;5051512;28;20225;-66
2023/05/13 04:30:28;;;;;;;30.40;23.73;;;11.90;99.90;;;;;;5050872;28;20210;-66
2023/05/13 04:32:54;;;;;;;31.77;23.20;;;12.00;99.90;;;;;;5051462;28;20174;-66
2023/05/13 04:35:20;;;;;;;26.27;22.37;;;12.00;99.90;;;;;;5051208;28;20192;-66
2023/05/13 04:37:46;;;;;;;30.33;22.17;;;12.00;99.90;;;;;;5051079;28;20175;-66
2023/05/13 04:40:11;;;;;;;27.37;21.43;;;12.10;99.90;;;;;;5050888;28;20534;-66
2023/05/13 04:42:37;;;;;;;28.07;23.23;;;12.10;99.90;;;;;;5050930;28;20198;-66
2023/05/13 04:45:03;;;;;;;25.80;20.90;;;12.20;99.90;;;;;;5051176;28;20167;-66
2023/05/13 04:47:29;;;;;;;25.77;21.00;;;12.20;99.90;;;;;;5050961;28;20175;-66
2023/05/13 04:49:54;;;;;;;25.20;21.30;;;12.20;99.90;;;;;;5049470;28;20221;-66
2023/05/13 04:52:20;;;;;;;24.63;21.33;;;12.20;99.90;;;;;;5050772;28;20202;-66
2023/05/13 04:54:45;;;;;;;28.83;23.80;;;12.20;99.90;;;;;;5051701;28;20832;-66
2023/05/13 04:57:11;;;;;;;26.43;23.70;;;12.30;99.90;;;;;;5055239;28;20253;-66
2023/05/13 04:59:36;;;;;;;23.33;20.80;;;12.40;99.90;;;;;;5054447;28;20205;-66
2023/05/13 05:02:02;;;;;;;23.53;19.60;;;12.40;99.90;;;;;;5055140;28;20252;-66
2023/05/13 05:04:28;;;;;;;25.77;20.97;;;12.50;99.90;;;;;;5054592;28;20221;-66
2023/05/13 05:06:53;;;;;;;22.60;19.70;;;12.60;99.90;;;;;;5055034;28;20206;-66
2023/05/13 05:09:19;;;;;;;24.13;20.40;;;12.60;99.90;;;;;;5054540;28;20170;-66
2023/05/13 05:11:45;;;;;;;27.53;19.67;;;12.70;99.90;;;;;;5054870;28;20210;-67
2023/05/13 05:14:10;;;;;;;22.63;18.93;;;12.80;99.90;;;;;;5054510;28;20167;-66
2023/05/13 05:16:36;;;;;;;21.93;18.77;;;12.80;99.90;;;;;;5054655;28;20644;-66
2023/05/13 05:19:01;;;;;;;20.73;18.20;;;12.90;99.90;;;;;;5054728;28;20202;-66
2023/05/13 05:21:27;;;;;;;19.93;17.83;;;12.90;99.90;;;;;;5054570;28;20225;-67
2023/05/13 05:23:52;;;;;;;19.67;17.57;;;12.80;99.90;;;;;;5055173;28;20175;-67
2023/05/13 05:26:18;;;;;;;22.10;18.47;;;12.90;99.90;;;;;;5054232;28;20179;-66
2023/05/13 05:28:44;;;;;;;22.80;18.93;;;12.90;99.90;;;;;;5053573;28;20217;-67
2023/05/13 05:31:10;;;;;;;20.50;18.43;;;12.90;99.90;;;;;;5052902;28;20745;-66
2023/05/13 05:33:36;;;;;;;20.67;18.43;;;12.90;99.90;;;;;;5054469;28;20438;-66
2023/05/13 05:36:02;;;;;;;20.57;18.33;;;13.00;99.90;;;;;;5054340;28;20174;-67
2023/05/13 05:38:28;;;;;;;21.47;18.23;;;13.00;99.90;;;;;;5054133;28;20519;-67
2023/05/13 05:40:53;;;;;;;22.70;16.87;;;13.20;99.90;;;;;;5054086;28;20620;-66
2023/05/13 05:43:19;;;;;;;19.50;17.07;;;13.30;99.90;;;;;;5054141;28;20185;-66
2023/05/13 05:45:45;;;;;;;17.53;15.73;;;13.50;99.90;;;;;;5054153;28;20550;-67
2023/05/13 05:48:10;;;;;;;17.80;14.53;;;13.60;99.90;;;;;;5054250;28;20178;-67
2023/05/13 05:50:36;;;;;;;17.07;15.27;;;13.70;99.90;;;;;;5053584;28;20210;-67
2023/05/13 05:53:03;;;;;;;19.03;15.73;;;13.60;99.90;;;;;;5053952;28;20232;-67
2023/05/13 05:55:30;;;;;;;17.70;15.13;;;13.70;99.90;;;;;;5054227;28;20190;-66
2023/05/13 05:57:56;;;;;;;17.27;14.80;;;13.70;99.90;;;;;;5054194;28;20175;-66
2023/05/13 06:00:22;;;;;;;19.00;14.70;;;13.80;99.90;;;;;;5054451;28;20694;-67
2023/05/13 06:02:48;;;;;;;19.50;14.60;;;13.90;99.90;;;;;;5051887;28;20210;-67
2023/05/13 06:05:14;;;;;;;16.70;14.93;;;13.90;99.90;;;;;;5054499;28;20257;-67
2023/05/13 06:07:40;;;;;;;17.03;15.33;;;14.00;99.90;;;;;;5052679;28;20182;-67
2023/05/13 06:10:06;;;;;;;18.63;16.40;;;14.10;99.90;;;;;;5053248;28;20178;-67
2023/05/13 06:12:32;;;;;;;18.80;16.67;;;14.30;99.90;;;;;;5052156;28;20664;-67
2023/05/13 06:14:58;;;;;;;19.17;14.90;;;14.50;99.90;;;;;;5053805;28;20178;-67
2023/05/13 06:17:24;;;;;;;16.00;14.30;;;14.60;99.90;;;;;;5053852;28;20667;-66
2023/05/13 06:19:49;;;;;;;14.73;13.37;;;14.80;99.90;;;;;;5053202;28;20207;-66
2023/05/13 06:22:15;;;;;;;15.17;13.73;;;15.00;99.90;;;;;;5053426;28;20194;-66
2023/05/13 06:24:43;;;;;;;15.27;13.73;;;15.20;99.90;;;;;;5053148;28;20187;-66
2023/05/13 06:27:10;;;;;;;15.00;12.10;;;15.20;99.90;;;;;;5053510;28;20651;-67
2023/05/13 06:29:36;;;;;;;16.10;12.93;;;15.40;99.90;;;;;;5052734;28;20366;-66
2023/05/13 06:32:02;;;;;;;14.83;13.43;;;15.50;99.90;;;;;;5053445;28;20259;-66
2023/05/13 06:34:27;;;;;;;15.47;13.90;;;15.60;99.90;;;;;;5052971;28;20256;-67
2023/05/13 06:36:53;;;;;;;15.77;13.83;;;15.80;99.90;;;;;;5053295;28;20163;-66
2023/05/13 06:39:18;;;;;;;15.97;14.30;;;16.10;99.90;;;;;;5052799;28;20178;-66
2023/05/13 06:41:44;;;;;;;16.43;14.97;;;16.40;99.90;;;;;;5052955;28;20584;-67
2023/05/13 06:44:10;;;;;;;15.70;14.20;;;16.60;99.90;;;;;;5052942;28;20250;-66
2023/05/13 06:46:35;;;;;;;14.10;12.70;;;16.90;99.90;;;;;;5053106;28;20171;-68
2023/05/13 06:49:01;;;;;;;13.23;11.83;;;17.00;99.90;;;;;;5053018;28;20178;-68
2023/05/13 06:51:27;;;;;;;15.63;12.50;;;17.10;99.90;;;;;;5052871;28;20578;-66
2023/05/13 06:53:53;;;;;;;13.07;11.80;;;17.30;99.90;;;;;;5052729;28;20233;-66
2023/05/13 06:56:19;;;;;;;11.93;10.83;;;17.50;99.90;;;;;;5052890;28;20166;-66
2023/05/13 06:58:44;;;;;;;12.33;11.23;;;17.40;99.90;;;;;;5052220;28;20179;-67
2023/05/13 07:01:10;;;;;;;12.70;11.37;;;17.70;99.90;;;;;;5052471;28;20570;-67
2023/05/13 07:03:37;;;;;;;13.40;12.00;;;18.00;99.90;;;;;;5051105;28;20214;-66
2023/05/13 07:06:03;;;;;;;14.00;12.80;;;18.20;99.90;;;;;;5053064;28;20583;-67
2023/05/13 07:08:29;;;;;;;13.33;11.83;;;18.30;99.90;;;;;;5052330;28;20344;-67
2023/05/13 07:10:54;;;;;;;13.13;12.03;;;18.30;99.90;;;;;;5052275;28;20754;-67
2023/05/13 07:13:21;;;;;;;11.70;10.57;;;18.50;99.90;;;;;;5052733;28;20183;-66
2023/05/13 07:15:47;;;;;;;11.60;10.60;;;19.00;99.90;;;;;;5052621;28;20175;-67
2023/05/13 07:18:13;;;;;;;11.23;10.23;;;19.60;99.90;;;;;;5052232;28;20201;-66
2023/05/13 07:20:38;;;;;;;10.38;9.32;;;20.50;99.90;;;;;;5052657;28;20542;-67
2023/05/13 07:23:04;;;;;;;9.95;9.15;;;21.00;99.90;;;;;;5053670;28;20179;-67
2023/05/13 07:25:30;;;;;;;11.07;9.90;;;21.20;99.90;;;;;;5052599;28;20698;-67
2023/05/13 07:27:56;;;;;;;11.60;9.55;;;21.50;99.90;;;;;;5056550;28;20224;-67
2023/05/13 07:30:22;;;;;;;12.52;10.07;;;21.70;99.90;;;;;;5057343;28;20213;-67
2023/05/13 07:32:47;;;;;;;10.50;9.55;;;21.70;99.90;;;;;;5057013;28;20195;-66
2023/05/13 07:35:15;;;;;;;9.23;8.43;;;21.90;99.90;;;;;;5047202;28;20186;-66
2023/05/13 07:37:41;;;;;;;10.55;8.13;;;22.50;99.90;;;;;;5058162;28;20171;-67
2023/05/13 07:40:07;;;;;;;11.40;9.32;;;23.10;99.90;;;;;;5058315;28;20179;-67
2023/05/13 07:42:33;;;;;;;10.40;9.30;;;23.70;99.90;;;;;;5058219;28;20198;-67
2023/05/13 07:44:59;;;;;;;9.43;8.52;;;24.20;99.90;;;;;;5057463;28;20167;-67
2023/05/13 07:47:26;;;;;;;10.50;9.45;;;24.60;99.90;;;;;;5057672;28;20180;-67
2023/05/13 07:49:52;;;;;;;9.30;8.45;;;25.10;99.90;;;;;;5051428;28;20174;-67
2023/05/13 07:52:17;;;;;;;9.68;8.77;;;25.40;99.90;;;;;;5051632;28;20277;-66
2023/05/13 07:54:43;;;;;;;8.70;7.90;;;25.40;99.90;;;;;;5051681;28;20237;-67
2023/05/13 07:57:08;;;;;;;10.85;7.93;;;25.30;99.90;;;;;;5051991;28;20174;-67
2023/05/13 07:59:34;;;;;;;9.93;7.57;;;25.10;99.90;;;;;;5051710;28;20611;-67
2023/05/13 08:02:00;;;;;;;7.88;7.03;;;25.20;99.90;;;;;;5051812;28;20616;-67
2023/05/13 08:04:25;;;;;;;9.52;8.60;;;25.40;99.90;;;;;;5050762;28;20259;-67
2023/05/13 08:06:51;;;;;;;8.25;7.50;;;25.50;99.90;;;;;;5048933;28;20183;-67
2023/05/13 08:09:17;;;;;;;9.30;8.02;;;25.80;99.90;;;;;;5051039;28;20329;-67
2023/05/13 08:11:42;;;;;;;8.27;7.50;;;26.20;99.90;;;;;;5051199;28;20687;-67
2023/05/13 08:14:08;;;;;;;8.15;7.40;;;26.50;99.90;;;;;;5051177;28;20179;-68
2023/05/13 08:16:35;;;;;;;8.88;6.88;;;27.20;99.90;;;;;;5051313;28;20635;-67
2023/05/13 08:19:00;;;;;;;9.13;8.48;;;28.00;99.90;;;;;;5051200;28;20217;-67
2023/05/13 08:21:26;;;;;;;7.30;6.70;;;27.90;99.90;;;;;;5051096;28;20625;-67
2023/05/13 08:23:51;;;;;;;7.10;6.60;;;27.40;99.90;;;;;;5051086;28;20193;-67
2023/05/13 08:26:17;;;;;;;7.57;6.88;;;27.30;99.90;;;;;;5051242;28;20186;-67
2023/05/13 08:28:43;;;;;;;7.82;7.13;;;27.40;99.90;;;;;;5050713;28;20183;-67
2023/05/13 08:31:12;;;;;;;7.85;7.15;;;27.20;99.90;;;;;;5050331;28;20642;-67
2023/05/13 08:33:38;;;;;;;8.45;7.03;;;27.00;99.90;;;;;;5051030;28;20163;-67
2023/05/13 08:36:04;;;;;;;8.98;7.75;;;26.60;99.90;;;;;;5051372;28;20173;-67
2023/05/13 08:38:32;;;;;;;9.23;6.65;;;25.90;99.90;;;;;;5046586;28;20281;-67
2023/05/13 08:40:58;;;;;;;10.15;7.13;;;25.50;99.90;;;;;;5047976;28;20242;-67
2023/05/13 08:43:27;;;;;;;7.03;6.40;;;25.70;99.90;;;;;;5051168;28;20193;-67
2023/05/13 08:45:53;;;;;;;8.18;7.10;;;26.30;99.90;;;;;;5050482;28;20190;-67
2023/05/13 08:48:20;;;;;;;11.07;6.63;;;26.90;99.90;;;;;;5051322;28;20179;-67
2023/05/13 08:50:46;;;;;;;7.43;6.82;;;27.60;99.90;;;;;;5050316;28;20241;-67
2023/05/13 08:53:12;;;;;;;9.43;8.48;;;27.90;99.90;;;;;;5050446;28;20535;-67
2023/05/13 08:55:41;;;;;;;9.60;8.13;;;28.00;99.90;;;;;;5050086;28;20179;-67
2023/05/13 08:58:07;;;;;;;8.32;7.50;;;27.90;99.90;;;;;;5051299;28;20170;-67
2023/05/13 09:00:33;;;;;;;9.65;8.85;;;27.30;99.90;;;;;;5049366;28;20181;-66
2023/05/13 09:03:00;;;;;;;8.60;7.80;;;26.70;99.90;;;;;;5050622;28;20194;-66
2023/05/13 09:05:26;;;;;;;10.20;9.30;;;25.90;99.90;;;;;;5051273;28;20189;-66
2023/05/13 09:07:52;;;;;;;10.05;8.85;;;25.10;99.90;;;;;;5051174;28;20720;-66
2023/05/13 09:10:19;;;;;;;10.38;9.48;;;24.60;99.90;;;;;;5050611;28;20636;-66
2023/05/13 09:12:53;;;;;;;8.15;7.47;;;24.50;99.90;;;;;;5050883;28;20194;-67
2023/05/13 09:15:23;;;;;;;9.63;8.63;;;24.80;99.90;;;;;;5050727;28;20166;-67
2023/05/13 09:17:51;;;;;;;8.75;7.95;;;25.30;99.90;;;;;;5050905;28;20253;-65
2023/05/13 09:20:19;;;;;;;7.75;7.07;;;25.90;99.90;;;;;;5050591;28;20179;-65
2023/05/13 09:22:50;;;;;;;8.20;7.40;;;26.30;99.90;;;;;;5050675;28;20290;-64
2023/05/13 09:25:18;;;;;;;9.43;7.95;;;26.50;99.90;;;;;;5050871;28;20167;-65
2023/05/13 09:27:53;;;;;;;8.73;7.07;;;26.80;99.90;;;;;;5050826;28;20209;-65
2023/05/13 09:30:21;;;;;;;9.32;8.48;;;27.20;99.90;;;;;;5050479;28;20177;-65
2023/05/13 09:33:03;;;;;;;8.18;5.95;;;27.40;99.90;;;;;;5049019;28;20537;-66
2023/05/13 09:35:31;;;;;;;8.05;7.35;;;27.60;99.90;;;;;;5050786;28;20246;-66
2023/05/13 09:37:57;;;;;;;8.05;7.28;;;27.60;99.90;;;;;;5050765;28;20241;-66
2023/05/13 09:40:23;;;;;;;8.32;7.53;;;27.50;99.90;;;;;;5050488;28;20181;-65
2023/05/13 09:42:49;;;;;;;7.85;7.00;;;27.50;99.90;;;;;;5054128;28;20578;-66
2023/05/13 09:45:16;;;;;;;8.55;7.72;;;27.20;99.90;;;;;;5054344;28;20660;-66
2023/05/13 09:47:42;;;;;;;8.35;7.60;;;27.30;99.90;;;;;;5053991;28;20171;-66
2023/05/13 09:50:10;;;;;;;10.23;8.52;;;27.20;99.90;;;;;;5053807;28;20182;-67
2023/05/13 09:52:37;;;;;;;10.18;9.13;;;27.20;99.90;;;;;;5053688;28;20693;-66
2023/05/13 09:55:07;;;;;;;9.50;8.70;;;27.20;99.90;;;;;;5054176;28;20174;-66
2023/05/13 09:57:33;;;;;;;8.65;7.95;;;27.20;99.90;;;;;;5053945;28;20261;-66
2023/05/13 10:00:00;;;;;;;8.65;7.40;;;27.70;99.90;;;;;;5053618;28;20190;-66
2023/05/13 10:02:27;;;;;;;12.38;9.05;;;28.20;99.90;;;;;;5053508;28;20197;-66
2023/05/13 10:04:57;;;;;;;8.85;7.95;;;28.20;99.90;;;;;;5053456;28;20217;-66
2023/05/13 10:07:24;;;;;;;8.65;7.75;;;28.10;99.90;;;;;;5052354;28;20222;-66
2023/05/13 10:10:01;;;;;;;8.95;7.43;;;27.80;99.90;;;;;;5053590;28;20180;-66
2023/05/13 10:12:28;;;;;;;8.88;8.05;;;27.70;99.90;;;;;;5053329;28;20202;-65
2023/05/13 10:14:54;;;;;;;9.38;6.93;;;27.40;99.90;;;;;;5053749;28;20175;-66
2023/05/13 10:17:22;;;;;;;11.40;6.55;;;27.20;99.90;;;;;;5053730;28;20175;-66
2023/05/13 10:19:50;;;;;;;9.20;6.78;;;27.60;99.90;;;;;;5052247;28;20175;-66
2023/05/13 10:22:28;;;;;;;8.65;7.57;;;27.70;99.90;;;;;;5051972;28;20745;-66
2023/05/13 10:24:58;;;;;;;7.70;7.00;;;27.80;99.90;;;;;;5053332;28;20218;-66
2023/05/13 10:27:32;;;;;;;7.15;6.45;;;27.80;99.90;;;;;;5053326;28;20659;-66
2023/05/13 10:30:00;;;;;;;6.65;6.18;;;28.10;99.90;;;;;;5052775;28;20166;-66
2023/05/13 10:32:28;;;;;;;7.80;7.20;;;28.30;99.90;;;;;;5051508;28;20214;-66
2023/05/13 10:34:59;;;;;;;6.97;6.35;;;28.30;99.90;;;;;;5053339;28;20167;-65
2023/05/13 10:37:46;;;;;;;8.95;6.15;;;28.50;99.90;;;;;;5053238;28;20202;-66
2023/05/13 10:40:37;;;;;;;9.02;6.00;;;28.30;99.90;;;;;;5052871;28;20602;-65
2023/05/13 10:43:18;;;;;;;6.65;5.70;;;28.10;99.90;;;;;;5052431;28;20171;-66
2023/05/13 10:45:46;;;;;;;5.25;4.85;;;27.90;99.90;;;;;;5033319;28;20174;-66
2023/05/13 10:48:12;;;;;;;9.77;5.53;;;28.40;99.90;;;;;;5049442;28;20198;-66
2023/05/13 10:50:38;;;;;;;5.30;4.80;;;28.60;99.90;;;;;;5052456;28;20205;-66
2023/05/13 10:53:09;;;;;;;5.72;5.22;;;28.70;99.90;;;;;;5052299;28;20179;-66
2023/05/13 10:55:46;;;;;;;5.68;5.28;;;28.50;99.90;;;;;;5053068;28;20566;-65
2023/05/13 10:58:13;;;;;;;5.97;5.38;;;28.60;99.90;;;;;;5052783;28;20178;-66
2023/05/13 11:00:43;;;;;;;5.68;5.22;;;28.50;99.90;;;;;;5052117;28;20585;-65
2023/05/13 11:03:13;;;;;;;6.13;5.50;;;28.50;99.90;;;;;;5052664;28;20194;-66
2023/05/13 11:06:03;;;;;;;5.25;4.85;;;28.30;99.90;;;;;;5052746;28;20167;-66
2023/05/13 11:08:39;;;;;;;4.72;4.40;;;27.80;99.90;;;;;;5052362;28;20175;-66
2023/05/13 11:11:21;;;;;;;5.60;5.10;;;28.10;99.90;;;;;;5052422;28;20289;-66
2023/05/13 11:13:49;;;;;;;5.72;5.32;;;28.10;99.90;;;;;;5052614;28;20213;-66
2023/05/13 11:16:15;;;;;;;5.05;4.65;;;28.10;99.90;;;;;;5052412;28;20235;-66
2023/05/13 11:18:41;;;;;;;7.05;4.95;;;27.80;99.90;;;;;;5052353;28;20648;-65
2023/05/13 11:21:07;;;;;;;5.18;4.78;;;27.80;99.90;;;;;;5044974;28;20203;-66
2023/05/13 11:23:49;;;;;;;5.93;4.07;;;27.90;99.90;;;;;;5032440;28;20184;-67
2023/05/13 11:26:16;;;;;;;4.65;4.32;;;28.00;99.90;;;;;;5047497;28;20264;-67
2023/05/13 11:28:58;;;;;;;4.75;4.38;;;28.10;99.90;;;;;;5052259;28;20170;-67
2023/05/13 11:31:26;;;;;;;5.43;4.70;;;28.10;99.90;;;;;;5051935;28;20218;-66
2023/05/13 11:34:15;;;;;;;5.20;4.20;;;28.00;99.90;;;;;;5052142;28;20647;-67
2023/05/13 11:36:55;;;;;;;8.27;5.20;;;28.30;99.90;;;;;;5051569;28;20233;-67
2023/05/13 11:39:25;;;;;;;4.82;4.43;;;28.30;99.90;;;;;;5051947;28;20178;-66
2023/05/13 11:41:51;;;;;;;4.82;4.40;;;28.10;99.90;;;;;;5051517;28;20199;-67
2023/05/13 11:44:19;;;;;;;4.85;4.55;;;28.10;99.90;;;;;;5051744;28;20316;-67
2023/05/13 11:46:56;;;;;;;4.43;4.03;;;28.30;99.90;;;;;;5051451;28;20553;-67
2023/05/13 11:49:40;;;;;;;5.43;5.00;;;28.30;99.90;;;;;;5052204;28;20171;-67
2023/05/13 11:52:08;;;;;;;5.35;4.95;;;27.40;99.90;;;;;;5051919;28;20298;-67
2023/05/13 11:54:47;;;;;;;5.13;4.72;;;26.50;99.90;;;;;;5051784;28;20169;-66
2023/05/13 11:57:25;;;;;;;4.70;4.30;;;26.40;99.90;;;;;;5051711;28;20559;-67
2023/05/13 11:59:54;;;;;;;5.32;4.93;;;26.40;99.90;;;;;;5051646;28;20636;-66
2023/05/13 12:02:25;;;;;;;4.45;4.20;;;25.60;99.90;;;;;;5051692;28;20198;-68
2023/05/13 12:04:51;;;;;;;4.85;4.38;;;24.70;99.90;;;;;;5050459;28;20240;-66
2023/05/13 12:07:24;;;;;;;4.57;4.28;;;23.90;99.90;;;;;;5052070;28;20656;-66
2023/05/13 12:09:51;;;;;;;5.93;5.63;;;23.10;99.90;;;;;;5051578;28;20217;-66
2023/05/13 12:12:18;;;;;;;4.93;4.60;;;22.30;99.90;;;;;;5051744;28;20202;-66
2023/05/13 12:14:45;;;;;;;4.53;4.28;;;21.90;99.90;;;;;;5051255;28;20186;-66
2023/05/13 12:17:14;;;;;;;4.82;4.45;;;21.70;99.90;;;;;;5052240;28;20261;-66
2023/05/13 12:19:57;;;;;;;4.57;4.18;;;22.00;99.90;;;;;;5051386;28;20705;-66
2023/05/13 12:22:23;;;;;;;3.90;3.70;;;21.80;99.90;;;;;;5051392;28;20190;-67
2023/05/13 12:24:48;;;;;;;4.00;3.70;;;21.60;99.90;;;;;;5050876;28;20558;-66
2023/05/13 12:27:14;;;;;;;4.05;3.65;;;21.30;99.90;;;;;;5049716;28;20217;-66
2023/05/13 12:29:41;;;;;;;4.00;3.80;;;21.40;99.90;;;;;;5050971;28;20167;-66
2023/05/13 12:32:07;;;;;;;4.55;4.30;;;21.80;99.90;;;;;;5051509;28;20213;-66
2023/05/13 12:34:33;;;;;;;4.55;4.15;;;22.40;99.90;;;;;;5050890;28;20235;-67
2023/05/13 12:37:12;;;;;;;4.38;4.07;;;22.60;99.90;;;;;;5051462;28;20167;-68
2023/05/13 12:39:39;;;;;;;4.40;4.00;;;22.40;99.90;;;;;;5050915;28;20182;-66